Date,TemperatureHighF,TemperatureAvgF,TemperatureLowF,DewpointHighF,DewpointAvgF,DewpointLowF,HumidityHigh,HumidityAvg,HumidityLow,PressureMaxIn,PressureMinIn,WindSpeedMaxMPH,WindSpeedAvgMPH,GustSpeedMaxMPH,PrecipitationSumIn
2013-5-20,82.4,80.8,80.3,70.8,28.1,-99.9,68,66,66,30.06,30.06,7,6,13,0.00
2013-5-21,77.9,31.5,24.0,69.3,7.7,0.0,86,74,68,30.00,30.00,14,7,6,0.00
2013-5-23,27.5,27.5,27.5,0.0,0.0,0.0,59,59,59,0.00,40.00,4,4,0,0.00
2013-5-28,81.4,69.5,11.3,69.8,52.6,0.0,87,69,63,30.12,30.08,18,10,19,0.00
2013-6-3,79.6,79.6,79.6,69.4,69.4,69.4,70,70,70,30.09,30.09,9,9,19,0.00
2013-6-4,84.2,83.5,83.1,-99.9,-99.9,-99.9,71,70,67,29.93,29.91,14,13,0,0.00
2013-6-5,80.8,80.3,80.1,-99.9,-99.9,-99.9,77,76,75,29.96,29.94,9,7,0,0.00
2013-6-7,80.7,60.2,53.7,19.7,-69.2,-99.9,70,30,63,29.87,29.75,34,-76,34,0.01
2013-6-11,86.3,70.7,77.8,-99.9,-99.9,-99.9,97,60,68,29.57,29.55,9,-49,0,0.00
2013-6-13,85.9,85.9,85.9,-99.9,-99.9,-99.9,68,68,68,29.55,29.55,9,9,0,0.00
2013-6-14,85.9,85.9,85.9,-99.9,-99.9,-99.9,68,68,68,29.55,29.55,9,9,0,0.00
2013-6-17,85.9,85.9,85.9,-99.9,-99.9,-99.9,68,68,68,29.55,29.55,9,9,0,0.00
2013-6-18,85.9,85.9,85.9,-99.9,-99.9,-99.9,68,68,68,29.55,29.55,9,9,0,0.00
2013-6-19,85.9,85.9,85.9,-99.9,-99.9,-99.9,68,68,68,29.55,29.55,9,9,0,0.00
2013-6-20,85.9,81.3,77.1,29.3,-24.3,-99.9,89,79,68,29.61,29.55,15,7,0,0.00
2013-6-21,86.8,82.4,77.2,76.2,72.2,69.1,83,71,60,29.66,29.61,20,8,0,0.00
2013-6-25,86.6,82.4,72.4,76.6,74.3,-5.1,98,76,63,29.67,29.56,17,6,0,0.00
2013-6-26,84.7,80.1,75.7,77.0,75.9,-4.8,98,87,70,29.63,29.52,17,6,0,0.09
2013-6-27,92.1,81.7,75.2,78.9,76.4,-11.4,100,85,50,29.56,29.45,18,5,0,0.00
2013-6-28,92.4,84.0,78.7,80.2,77.7,-6.3,100,82,53,29.47,29.30,21,8,0,0.00
2013-6-29,82.6,79.8,76.4,79.4,73.9,-6.0,92,82,67,29.35,29.27,14,6,0,0.00
2013-7-1,87.6,81.2,73.8,73.3,66.1,-16.1,85,61,42,29.44,24.50,19,6,0,0.00
2013-7-2,87.3,78.5,70.0,73.4,68.0,-13.5,89,71,46,29.54,26.52,14,5,0,0.00
2013-7-3,87.0,77.6,72.9,75.8,73.0,-7.8,100,86,63,29.56,29.47,21,5,0,0.09
2013-7-4,83.8,76.4,1.1,76.0,72.7,-5.5,100,89,70,29.55,29.46,24,8,0,0.09
2013-7-5,78.1,74.4,71.9,76.5,73.3,-1.2,100,96,86,29.63,29.52,19,6,0,0.36
2013-7-6,75.2,74.6,72.8,74.1,73.3,-0.2,99,95,93,29.57,29.54,8,3,0,0.00
2013-7-8,82.8,76.6,72.7,99.9,74.4,-4.1,100,88,75,29.72,22.20,17,4,0,0.00
2013-7-9,85.4,78.7,71.8,75.8,73.7,-6.9,99,85,67,29.73,29.62,16,4,0,0.00
2013-7-10,86.3,76.1,71.9,99.9,73.3,0.1,99,90,54,30.42,22.20,20,4,0,1.18
2013-7-11,76.0,70.6,65.5,74.5,70.0,-0.4,99,97,93,30.06,29.90,25,5,0,0.40
2013-7-12,88.2,74.5,65.1,77.3,68.8,-8.1,99,83,60,29.97,29.84,17,5,0,0.00
2013-7-13,86.3,76.7,71.3,76.5,72.9,-5.6,98,88,68,29.99,29.86,20,3,0,0.11
2013-7-14,88.3,78.0,1.1,76.2,71.0,-11.8,99,80,50,30.04,29.91,22,4,0,0.14
2013-7-15,84.1,79.6,76.0,77.6,74.9,-5.0,98,85,70,30.12,30.01,16,5,0,0.00
2013-7-16,87.4,80.1,75.1,75.8,73.8,-6.3,92,81,62,30.19,30.09,15,7,0,0.00
2013-7-17,89.7,81.0,74.4,76.1,73.0,-7.2,94,77,53,30.21,29.69,15,5,0,0.00
2013-7-18,88.7,79.4,1.1,77.2,72.7,-4.5,96,80,54,30.15,30.02,19,4,0,0.00
2013-7-19,85.1,78.3,74.0,76.8,74.4,-6.2,98,88,66,30.09,29.96,17,4,0,0.00
2013-7-20,78.1,76.2,76.0,76.2,75.4,-0.6,98,97,92,30.00,29.96,10,2,0,0.00
2013-7-21,76.0,76.0,76.0,75.3,75.3,75.3,97,97,97,29.97,29.97,1,1,0,0.00
2013-7-22,84.0,76.5,72.1,78.8,74.9,0.6,98,94,82,30.10,29.97,25,4,0,0.57
2013-7-25,90.3,84.5,75.8,74.6,72.0,-11.4,87,66,52,30.01,29.96,18,7,0,0.01
2013-7-26,88.6,81.3,74.6,77.4,74.0,-1.8,96,79,60,30.06,29.97,15,5,0,0.00
2013-7-27,82.8,77.3,71.5,77.1,73.9,-3.8,98,89,68,30.01,29.89,31,4,0,1.02
2013-7-28,87.2,79.4,71.3,78.1,74.2,-6.9,99,84,59,30.00,29.87,22,6,0,0.41
2013-7-29,79.6,76.4,1.1,77.2,75.2,0.5,98,96,84,30.06,29.98,8,3,0,0.00
2013-7-30,84.6,84.1,83.6,75.0,75.0,74.1,74,73,71,30.15,30.14,9,7,0,0.00
2013-7-31,84.1,82.2,81.2,76.7,76.1,75.0,86,81,73,30.14,30.10,7,6,0,0.00
2013-8-1,82.5,81.3,81.2,77.6,76.7,-3.0,88,86,79,30.10,30.00,13,5,0,0.00
2013-8-8,91.0,85.3,81.7,78.8,76.1,-9.1,88,74,55,29.99,29.92,16,6,0,0.00
2013-8-9,88.4,83.2,1.1,78.7,76.5,-7.6,96,80,63,30.05,29.94,24,6,0,0.00
2013-8-10,87.0,82.1,78.0,79.4,75.9,-9.0,97,82,60,30.11,30.02,16,5,0,0.00
2013-8-11,88.8,81.9,75.2,79.5,76.2,-8.5,99,83,60,30.14,30.07,18,5,0,0.06
2013-8-12,86.3,81.0,76.6,80.6,77.2,-5.1,97,88,69,30.12,30.03,16,4,0,0.43
2013-8-13,89.0,78.7,73.3,79.5,75.4,-6.4,98,90,60,30.04,29.95,24,5,0,0.78
2013-8-14,84.2,77.1,72.3,74.9,73.0,-6.4,99,87,63,29.98,29.90,20,6,0,0.00
2013-8-15,85.7,78.9,1.1,76.8,73.7,-5.1,98,84,58,29.99,29.91,14,4,0,0.84
2013-8-16,84.8,77.7,73.4,76.2,73.2,-7.4,97,86,63,30.00,29.93,18,5,0,0.48
2013-8-17,76.1,73.6,71.9,74.9,72.3,-0.5,99,96,89,30.01,29.92,28,4,0,1.01
2013-8-18,80.8,74.4,70.4,76.7,73.5,-2.2,99,96,84,30.07,29.95,27,6,0,1.13
2013-8-19,85.4,77.0,75.6,77.8,76.3,1.1,99,97,72,30.03,29.99,14,4,0,0.03
2013-8-20,83.3,79.2,76.4,75.0,73.4,70.1,98,86,71,30.10,30.02,14,4,0,0.03
2013-8-21,86.6,79.2,74.0,75.5,73.3,69.5,98,85,65,30.15,30.05,15,4,0,0.03
2013-8-22,86.7,77.8,73.2,76.0,73.1,70.1,97,90,62,30.11,29.97,15,5,0,0.03
2013-8-23,80.5,76.9,75.4,74.2,72.5,71.1,96,90,78,30.04,29.94,13,4,0,0.03
2013-8-24,76.5,75.7,75.1,73.1,72.6,71.9,97,95,92,30.03,29.99,6,3,0,0.03
2013-8-26,86.5,80.5,74.6,70.2,65.7,61.3,86,64,45,30.21,30.10,10,5,0,0.12
2013-8-27,84.7,73.2,28.0,67.4,55.7,0.8,95,79,12,30.13,30.05,229,6,0,0.04
2013-8-28,85.3,80.6,76.6,73.7,24.5,0.8,69,62,50,30.08,30.01,12,8,0,0.00
2013-8-29,86.9,84.3,79.1,76.2,72.6,70.8,70,59,52,30.08,29.99,12,6,0,0.00
2013-8-30,90.9,88.9,87.6,75.0,72.9,71.2,50,47,43,30.01,29.97,10,5,0,0.00
2013-9-3,88.3,86.3,82.3,80.5,78.4,73.7,76,71,65,29.97,29.88,18,10,0,0.00
2013-9-4,88.0,84.3,80.8,78.7,77.5,75.2,86,75,60,30.07,30.00,15,6,0,0.00
2013-9-18,80.0,80.0,80.0,0.0,0.0,0.0,78,78,78,30.10,30.10,6,6,0,0.00
2013-10-22,7.0,7.0,7.0,-35.8,-35.8,-35.8,3,3,3,29.66,29.66,0,0,0,0.03
2013-10-23,7.0,7.0,7.0,-35.8,-35.8,-35.8,3,3,3,29.66,29.66,0,0,0,0.03